Time;durP1;ratioP1;P1;durP2;ratioP2;P2;SDS_P1;SDS_P2;PMS_P1;PMS_P2;Temp;Humidity;BMP_temperature;BMP_pressure;BME280_temperature;BME280_humidity;BME280_pressure;Samples;Min_cycle;Max_cycle;Signal;HPM_P1;HPM_P2
2022/01/26 00:07:19;;;;;;;0.20;0.20;;;;;;;-4.07;44.38;96076.47;5093513;28;20513;-54
2022/01/26 00:09:56;;;;;;;0.20;0.20;;;;;;;-3.45;48.89;96069.00;5092852;28;20522;-52
2022/01/26 00:12:31;;;;;;;0.20;0.20;;;;;;;-3.21;48.66;96036.06;5093348;28;20439;-52
2022/01/26 00:14:59;;;;;;;0.40;0.40;;;;;;;-2.86;46.70;96039.97;5093083;28;20439;-53
2022/01/26 00:17:31;;;;;;;0.53;0.50;;;;;;;-3.56;43.53;95927.66;5093142;28;20432;-53
2022/01/26 00:20:19;;;;;;;0.20;0.20;;;;;;;-2.50;42.97;96018.75;5093426;28;20425;-53
2022/01/26 00:23:50;;;;;;;0.40;0.40;;;;;;;-2.13;42.83;96014.44;5093120;28;20469;-53
2022/01/26 00:40:35;;;;;;;0.20;0.20;;;;;;;-2.24;47.48;96047.75;5092801;28;20447;-54
2022/01/26 00:43:16;;;;;;;0.70;0.70;;;;;;;-2.13;48.52;95953.88;5091323;28;20432;-54
2022/01/26 00:45:49;;;;;;;0.20;0.20;;;;;;;-1.47;47.79;96033.69;5092304;28;20551;-54
2022/01/26 00:48:20;;;;;;;0.20;0.20;;;;;;;-1.63;42.59;96037.22;5092472;28;20436;-54
2022/01/26 00:50:52;;;;;;;0.20;0.20;;;;;;;-1.86;44.10;96038.22;5092092;28;20464;-54
2022/01/26 00:53:41;;;;;;;0.33;0.30;;;;;;;-1.73;41.55;96033.25;5089472;28;20456;-54
2022/01/26 00:56:54;;;;;;;0.20;0.10;;;;;;;-3.28;40.66;95791.50;5092403;28;20857;-54
2022/01/26 00:59:22;;;;;;;0.20;0.20;;;;;;;-2.03;44.58;96028.00;5092283;28;20428;-54
2022/01/26 01:01:51;;;;;;;0.20;0.20;;;;;;;-7.74;42.45;95194.25;5092237;28;20429;-54
2022/01/26 01:04:29;;;;;;;0.20;0.20;;;;;;;-2.29;42.35;96029.31;5092005;28;20489;-54
2022/01/26 01:07:01;;;;;;;0.43;0.43;;;;;;;-2.10;41.51;96021.84;5092463;28;20839;-54
2022/01/26 01:09:35;;;;;;;0.20;0.20;;;;;;;-1.98;41.46;96025.69;5092154;28;20463;-54
2022/01/26 01:12:06;;;;;;;0.20;0.20;;;;;;;-2.72;41.92;95904.38;5091664;28;20500;-54
2022/01/26 01:14:39;;;;;;;0.20;0.10;;;;;;;-1.76;43.01;96020.59;5092107;28;20462;-54
2022/01/26 01:17:20;;;;;;;0.20;0.20;;;;;;;-1.62;46.05;96017.25;5090983;28;20531;-54
2022/01/26 01:20:17;;;;;;;1.60;1.17;;;;;;;-1.58;46.03;96016.72;5091625;28;20507;-54
2022/01/26 01:31:40;;;;;;;0.20;0.20;;;;;;;-2.77;41.29;95966.34;5092134;28;20492;-52
2022/01/26 01:34:13;;;;;;;0.20;0.10;;;;;;;-3.58;43.47;96027.25;5091647;28;20508;-54
2022/01/26 01:36:46;;;;;;;0.20;0.10;;;;;;;-4.41;44.28;95922.31;5091728;28;20428;-52
2022/01/26 01:39:18;;;;;;;0.70;0.70;;;;;;;-2.94;43.71;96034.03;5090675;28;20432;-52
2022/01/26 01:41:58;;;;;;;0.20;0.20;;;;;;;-3.22;42.66;95989.59;5091782;28;20469;-53
2022/01/26 01:44:28;;;;;;;0.20;0.10;;;;;;;-2.81;43.96;96029.91;5091683;28;20529;-52
2022/01/26 01:46:58;;;;;;;0.40;0.40;;;;;;;-2.87;42.18;96033.19;5090769;28;20456;-53
2022/01/26 01:49:29;;;;;;;2.20;1.90;;;;;;;-5.30;45.71;95871.34;5091130;28;20437;-53
2022/01/26 01:52:02;;;;;;;1.50;0.57;;;;;;;-5.28;46.91;95853.09;5091327;28;20464;-53
2022/01/26 01:54:32;;;;;;;2.13;0.63;;;;;;;-6.16;44.79;95624.06;5091252;28;20439;-53
2022/01/26 01:57:02;;;;;;;0.20;0.20;;;;;;;-3.61;45.00;96022.38;5091077;28;20535;-52
2022/01/26 01:59:34;;;;;;;1.47;1.47;;;;;;;-4.29;45.25;95861.50;5091489;28;20464;-52
2022/01/26 02:02:03;;;;;;;0.20;0.20;;;;;;;-3.13;45.19;96021.44;5091696;28;20489;-53
2022/01/26 02:04:32;;;;;;;0.30;0.20;;;;;;;-4.25;47.13;95959.34;5090826;28;20471;-52
2022/01/26 02:07:01;;;;;;;0.20;0.10;;;;;;;-2.95;47.04;96016.84;5091534;28;20417;-52
2022/01/26 02:09:30;;;;;;;0.20;0.17;;;;;;;-3.32;47.81;95978.59;5091457;28;20861;-52
2022/01/26 02:12:01;;;;;;;0.20;0.20;;;;;;;-3.19;44.76;95983.25;5091454;28;20460;-52
2022/01/26 02:14:38;;;;;;;0.20;0.20;;;;;;;-3.15;43.61;96013.84;5091539;28;20485;-53
2022/01/26 02:17:26;;;;;;;1.30;1.30;;;;;;;-3.35;47.28;95909.78;5091162;28;20436;-52
2022/01/26 03:00:44;;;;;;;0.50;0.50;;;;;;;-3.51;45.43;96010.88;5093864;28;20428;-53
2022/01/26 03:03:17;;;;;;;0.20;0.20;;;;;;;-3.74;45.38;96024.69;5094920;28;20464;-53
2022/01/26 03:05:55;;;;;;;0.30;0.30;;;;;;;-4.06;45.27;95947.84;5093904;28;20420;-53
2022/01/26 03:08:31;;;;;;;1.70;1.70;;;;;;;-4.36;45.03;95944.16;5093995;28;20744;-53
2022/01/26 03:11:08;;;;;;;0.20;0.20;;;;;;;-3.34;44.10;96022.81;5094135;28;20506;-53
2022/01/26 03:13:52;;;;;;;0.57;0.57;;;;;;;-3.13;43.41;96019.66;5094013;28;20447;-53
2022/01/26 03:16:51;;;;;;;0.20;0.10;;;;;;;-2.78;44.14;96024.38;5094176;28;20437;-53
2022/01/26 03:19:23;;;;;;;0.20;0.10;;;;;;;-3.40;43.71;96025.28;5094613;28;20497;-53
2022/01/26 03:28:19;;;;;;;0.20;0.20;;;;;;;-3.51;44.12;95940.09;5094251;28;20436;-53
2022/01/26 03:34:01;;;;;;;0.20;0.20;;;;;;;-6.05;43.46;95636.66;5068173;28;20582;-53
2022/01/26 03:36:48;;;;;;;0.40;0.40;;;;;;;-6.55;44.43;95454.50;5094030;28;20468;-53
2022/01/26 03:39:42;;;;;;;0.20;0.10;;;;;;;-5.32;43.81;95700.22;5094110;28;20454;-54
2022/01/26 03:42:14;;;;;;;0.20;0.20;;;;;;;-3.01;43.14;96000.16;5093948;28;20420;-53
2022/01/26 03:44:45;;;;;;;0.20;0.20;;;;;;;-3.57;44.89;96000.38;5093829;28;20432;-53
2022/01/26 03:47:31;;;;;;;0.30;0.30;;;;;;;-5.66;47.32;95817.50;5093279;28;20476;-53
2022/01/26 03:49:59;;;;;;;0.87;0.87;;;;;;;-3.91;69.98;95993.63;5093315;28;20523;-52
2022/01/26 03:52:28;;;;;;;1.37;0.80;;;;;;;-4.26;53.49;95996.56;5093920;28;20521;-53
2022/01/26 03:54:57;;;;;;;0.20;0.20;;;;;;;-5.19;52.80;95997.66;5093472;28;20504;-53
2022/01/26 03:57:26;;;;;;;0.30;0.30;;;;;;;-5.22;52.43;96003.16;5093326;28;20420;-53
2022/01/26 03:59:57;;;;;;;0.60;0.60;;;;;;;-5.38;51.77;95946.25;5093514;28;20952;-53
2022/01/26 04:02:29;;;;;;;0.20;0.10;;;;;;;-9.11;49.88;95379.50;5093126;28;20424;-53
2022/01/26 04:05:06;;;;;;;1.13;0.57;;;;;;;-5.26;49.31;95928.66;5093225;28;20435;-53
2022/01/26 04:08:03;;;;;;;0.40;0.40;;;;;;;-5.13;50.63;96009.94;5092449;28;20514;-53
2022/01/26 04:10:46;;;;;;;0.20;0.20;;;;;;;-5.01;50.68;96004.50;5093156;28;20486;-53
2022/01/26 04:13:27;;;;;;;0.20;0.20;;;;;;;-5.48;52.06;96011.88;5092825;28;20443;-53
2022/01/26 04:15:57;;;;;;;0.20;0.20;;;;;;;-4.59;51.62;96008.66;5093216;28;20477;-53
2022/01/26 04:18:33;;;;;;;0.20;0.20;;;;;;;-4.08;49.66;95984.28;5093262;28;20493;-53
2022/01/26 04:21:10;;;;;;;0.20;0.20;;;;;;;-4.23;47.12;95954.84;5093347;28;20482;-53
2022/01/26 04:23:46;;;;;;;0.20;0.13;;;;;;;-3.67;49.79;96002.34;5091324;28;20517;-53
2022/01/26 04:26:22;;;;;;;0.20;0.20;;;;;;;-4.75;47.03;95775.09;5093114;28;20489;-53
2022/01/26 04:29:01;;;;;;;0.20;0.20;;;;;;;-3.39;45.88;96003.56;5090272;28;20428;-53
2022/01/26 04:31:34;;;;;;;0.30;0.20;;;;;;;-4.08;45.90;95929.09;5092538;28;20494;-53
2022/01/26 04:34:03;;;;;;;0.60;0.60;;;;;;;-4.15;46.78;96008.38;5092799;28;20429;-53
2022/01/26 04:36:37;;;;;;;0.30;0.30;;;;;;;-5.49;47.15;95857.91;5093284;28;20512;-53
2022/01/26 04:39:10;;;;;;;0.20;0.20;;;;;;;-10.70;49.63;95249.59;5093253;28;20431;-53
2022/01/26 04:41:43;;;;;;;0.73;0.73;;;;;;;-6.99;53.23;95924.59;5092648;28;20433;-53
2022/01/26 04:44:19;;;;;;;3.03;1.30;;;;;;;-5.76;53.85;96024.16;5092362;28;20470;-54
2022/01/26 04:46:50;;;;;;;1.10;1.10;;;;;;;-5.26;52.45;96014.75;5092078;28;20463;-52
2022/01/26 04:49:19;;;;;;;1.63;1.57;;;;;;;-5.64;51.79;95968.72;5092918;28;20493;-54
2022/01/26 04:51:47;;;;;;;1.33;0.80;;;;;;;-6.37;52.49;95891.91;5092125;28;20490;-52
2022/01/26 04:54:16;;;;;;;0.30;0.30;;;;;;;-6.64;53.08;95959.84;5093044;28;20471;-54
2022/01/26 04:56:45;;;;;;;0.23;0.20;;;;;;;-6.08;54.82;96073.00;5092772;28;20428;-52
2022/01/26 04:59:14;;;;;;;0.63;0.63;;;;;;;-6.19;54.86;95939.06;5092501;28;20456;-53
2022/01/26 05:01:42;;;;;;;0.57;0.53;;;;;;;-6.09;53.63;95926.88;5092786;28;20464;-53
2022/01/26 05:04:17;;;;;;;0.30;0.20;;;;;;;-6.23;54.22;95937.75;5092630;28;20450;-52
2022/01/26 05:06:46;;;;;;;0.20;0.10;;;;;;;-5.61;53.25;95991.66;5092189;28;21073;-53
2022/01/26 05:09:15;;;;;;;0.50;0.50;;;;;;;-5.96;52.61;95924.69;5092299;28;20862;-53
2022/01/26 05:11:45;;;;;;;0.20;0.10;;;;;;;-6.21;52.62;95873.94;5092259;28;20464;-53
2022/01/26 05:14:15;;;;;;;0.20;0.20;;;;;;;-6.12;53.63;95927.22;5092769;28;20460;-52
2022/01/26 05:16:44;;;;;;;0.20;0.20;;;;;;;-7.50;55.50;95781.03;5091461;28;20884;-52
2022/01/26 05:19:15;;;;;;;0.20;0.20;;;;;;;-6.55;57.12;95972.66;5092537;28;20448;-53
2022/01/26 05:21:44;;;;;;;1.43;0.80;;;;;;;-7.78;56.63;95754.56;5091709;28;20432;-53
2022/01/26 05:24:18;;;;;;;0.30;0.30;;;;;;;-6.55;56.86;95949.44;5091754;28;20956;-53
2022/01/26 05:26:49;;;;;;;2.40;2.40;;;;;;;-5.92;55.97;95993.91;5092196;28;20445;-53
2022/01/26 05:29:19;;;;;;;0.20;0.20;;;;;;;-5.84;55.18;96000.88;5092152;28;20424;-53
2022/01/26 05:31:47;;;;;;;2.33;0.70;;;;;;;-5.56;53.95;95984.25;5091276;28;20464;-54
2022/01/26 05:34:19;;;;;;;0.33;0.33;;;;;;;-6.21;55.30;95993.41;5092061;28;20481;-53
2022/01/26 05:36:49;;;;;;;1.67;1.67;;;;;;;-7.39;55.98;95846.94;5091976;28;20428;-55
2022/01/26 05:39:17;;;;;;;0.30;0.30;;;;;;;-6.97;57.45;95930.41;5092130;28;20448;-53
2022/01/26 05:41:50;;;;;;;0.40;0.40;;;;;;;-6.61;57.08;96001.63;5091059;28;20436;-53
2022/01/26 05:44:20;;;;;;;0.97;0.97;;;;;;;-6.53;55.50;95921.75;5091071;28;20444;-54
2022/01/26 05:46:50;;;;;;;0.50;0.50;;;;;;;-8.14;53.79;95650.06;5091716;28;20460;-53
2022/01/26 05:49:20;;;;;;;0.33;0.30;;;;;;;-6.16;54.73;95985.22;5091058;28;20439;-53
2022/01/26 05:52:04;;;;;;;0.30;0.30;;;;;;;-6.03;53.39;95946.91;5091980;28;20425;-53
2022/01/26 05:54:32;;;;;;;0.30;0.30;;;;;;;-5.70;52.34;95991.75;5090828;28;20436;-54
2022/01/26 05:57:03;;;;;;;0.20;0.20;;;;;;;-6.73;53.13;95873.91;5091290;28;20424;-53
2022/01/26 05:59:33;;;;;;;1.27;1.27;;;;;;;-6.02;53.57;95995.78;5090462;28;20485;-54
2022/01/26 06:02:02;;;;;;;6.23;1.17;;;;;;;-6.16;53.26;95974.88;5091831;28;20448;-54
2022/01/26 06:04:48;;;;;;;1.37;1.37;;;;;;;-5.99;52.01;95919.84;5091567;28;20420;-53
2022/01/26 06:07:25;;;;;;;0.20;0.20;;;;;;;-6.80;52.25;95795.59;5092016;28;20425;-53
2022/01/26 06:09:56;;;;;;;0.57;0.57;;;;;;;-7.18;52.62;95754.75;5091847;28;20497;-53
2022/01/26 06:12:25;;;;;;;1.37;1.37;;;;;;;-6.90;52.15;95776.84;5091790;28;20506;-53
2022/01/26 06:14:58;;;;;;;1.90;1.80;;;;;;;-5.67;51.89;95994.84;5091936;28;20859;-53
2022/01/26 06:17:27;;;;;;;1.47;1.23;;;;;;;-6.92;51.02;95747.03;5091600;28;20425;-53
2022/01/26 06:20:13;;;;;;;0.20;0.20;;;;;;;-5.73;51.46;95924.94;5091235;28;20493;-53
2022/01/26 06:22:44;;;;;;;4.20;1.07;;;;;;;-5.82;51.43;95924.91;5091341;28;20428;-53
2022/01/26 06:25:13;;;;;;;0.30;0.30;;;;;;;-5.11;51.29;96009.00;5090769;28;20439;-53
2022/01/26 06:27:52;;;;;;;3.40;1.33;;;;;;;-5.20;51.41;95969.38;5092770;28;20929;-54
2022/01/26 06:30:46;;;;;;;0.27;0.20;;;;;;;-5.84;50.49;95882.97;5094731;28;20443;-53
2022/01/26 06:33:15;;;;;;;0.30;0.30;;;;;;;-4.38;49.21;96003.03;5095315;28;20532;-53
2022/01/26 06:35:49;;;;;;;1.17;1.17;;;;;;;-4.01;48.34;95972.28;5095196;28;20511;-55
2022/01/26 06:38:17;;;;;;;0.73;0.70;;;;;;;-3.43;47.49;96000.50;5094380;28;20450;-54
2022/01/26 06:40:46;;;;;;;1.70;1.60;;;;;;;-3.37;47.01;95967.94;5095276;28;20527;-54
2022/01/26 06:43:15;;;;;;;0.20;0.20;;;;;;;-2.75;45.89;95995.50;5095152;28;20944;-54
2022/01/26 06:45:53;;;;;;;1.27;1.27;;;;;;;-3.28;44.96;95845.91;5094661;28;20499;-52
2022/01/26 06:48:40;;;;;;;0.20;0.10;;;;;;;-1.99;44.87;95997.25;5095047;28;20428;-53
2022/01/26 06:51:11;;;;;;;1.73;1.73;;;;;;;-1.96;44.08;95996.91;5094546;28;20549;-53
2022/01/26 06:53:40;;;;;;;0.63;0.63;;;;;;;-1.64;44.27;96001.81;5094991;28;20491;-53
2022/01/26 06:56:09;;;;;;;15.70;1.13;;;;;;;-3.14;43.82;95805.50;5094903;28;20929;-53
2022/01/26 06:58:38;;;;;;;2.27;2.07;;;;;;;-2.28;43.46;96003.19;5095019;28;20424;-54
2022/01/26 07:01:12;;;;;;;0.80;0.80;;;;;;;-4.76;45.98;95750.22;5094819;28;20458;-54
2022/01/26 07:03:42;;;;;;;0.67;0.67;;;;;;;-3.32;46.69;95997.56;5094481;28;20436;-54
2022/01/26 07:06:12;;;;;;;1.60;1.60;;;;;;;-3.03;46.34;95950.28;5094249;28;20490;-54
2022/01/26 07:08:42;;;;;;;0.20;0.20;;;;;;;-1.99;44.44;95994.66;5094784;28;21022;-55
2022/01/26 07:11:13;;;;;;;4.13;2.00;;;;;;;-2.10;44.72;96000.28;5093836;28;20471;-54
2022/01/26 07:13:42;;;;;;;1.00;0.97;;;;;;;-1.83;44.06;95996.31;5094298;28;20468;-54
2022/01/26 07:21:45;;;;;;;3.33;3.27;;;;;;;-0.08;40.04;95976.06;5094467;28;20539;-55
2022/01/26 07:24:14;;;;;;;3.03;2.83;;;;;;;-0.14;39.85;95966.41;5093910;28;20425;-55
2022/01/26 07:26:43;;;;;;;8.77;2.90;;;;;;;-0.03;39.44;95978.13;5094296;28;20524;-54
2022/01/26 07:29:13;;;;;;;1.17;1.17;;;;;;;-0.43;40.19;95976.94;5094345;28;20479;-54
2022/01/26 07:31:42;;;;;;;2.20;1.90;;;;;;;-0.55;40.72;95983.63;5094604;28;20432;-54
2022/01/26 07:34:14;;;;;;;0.40;0.40;;;;;;;0.21;39.54;95971.69;5094098;28;20475;-54
2022/01/26 07:36:44;;;;;;;0.30;0.20;;;;;;;1.07;38.95;95972.03;5093766;28;20432;-54
2022/01/26 07:39:17;;;;;;;2.20;1.70;;;;;;;0.89;38.27;95976.16;5093671;28;20432;-54
2022/01/26 07:41:46;;;;;;;1.53;1.53;;;;;;;1.39;36.82;95974.97;5094101;28;20452;-53
2022/01/26 07:44:14;;;;;;;0.80;0.80;;;;;;;2.23;35.63;95905.50;5093949;28;20515;-53
2022/01/26 07:46:44;;;;;;;4.60;1.17;;;;;;;3.04;35.72;95959.88;5093730;28;20503;-52
2022/01/26 07:49:12;;;;;;;1.67;1.57;;;;;;;2.52;35.32;95939.09;5093836;28;20439;-52
2022/01/26 07:51:42;;;;;;;1.37;1.37;;;;;;;3.82;33.42;95950.03;5093592;28;20427;-52
2022/01/26 07:54:11;;;;;;;0.93;0.93;;;;;;;4.57;31.57;95937.75;5093788;28;20490;-52
2022/01/26 07:56:57;;;;;;;1.33;0.80;;;;;;;4.38;31.31;95937.72;5093749;28;20460;-52
2022/01/26 07:59:46;;;;;;;0.80;0.80;;;;;;;3.99;31.85;95929.34;5093041;28;20436;-52
2022/01/26 08:02:15;;;;;;;5.77;1.23;;;;;;;3.97;31.91;95920.91;5093784;28;20430;-52
2022/01/26 08:04:45;;;;;;;1.53;1.43;;;;;;;3.43;30.69;95903.09;5093782;28;20435;-52
2022/01/26 08:07:15;;;;;;;0.97;0.93;;;;;;;4.14;30.46;95927.22;5093622;28;20972;-51
2022/01/26 08:09:51;;;;;;;1.63;1.20;;;;;;;3.98;30.01;95863.00;5093020;28;20468;-51
2022/01/26 08:12:22;;;;;;;1.10;1.10;;;;;;;4.24;29.71;95812.09;5093048;28;20436;-51
2022/01/26 08:15:11;;;;;;;2.27;2.17;;;;;;;5.50;29.77;95923.34;5093308;28;20523;-52
2022/01/26 08:17:39;;;;;;;2.40;2.20;;;;;;;6.55;27.48;95900.72;5092919;28;20631;-53
2022/01/26 08:20:10;;;;;;;2.10;1.27;;;;;;;6.02;27.04;95904.22;5093681;28;20429;-53
2022/01/26 08:22:40;;;;;;;0.47;0.47;;;;;;;5.55;28.24;95912.97;5093053;28;20505;-53
2022/01/26 08:25:10;;;;;;;0.60;0.60;;;;;;;5.72;27.81;95922.63;5093267;28;20471;-54
2022/01/26 08:27:46;;;;;;;4.10;2.40;;;;;;;4.90;29.26;95843.69;5092901;28;20468;-54
2022/01/26 08:30:17;;;;;;;1.83;0.80;;;;;;;5.84;28.94;95914.00;5093193;28;20448;-55
2022/01/26 08:32:47;;;;;;;0.97;0.97;;;;;;;5.26;28.95;95917.22;5093080;28;20772;-55
2022/01/26 08:35:15;;;;;;;0.40;0.30;;;;;;;6.02;28.98;95921.84;5092871;28;20507;-55
2022/01/26 08:37:44;;;;;;;0.73;0.73;;;;;;;6.22;28.92;95923.13;5093062;28;20478;-56
2022/01/26 08:40:13;;;;;;;1.63;1.57;;;;;;;5.75;28.73;95914.31;5093199;28;20436;-56
2022/01/26 08:42:42;;;;;;;1.20;1.20;;;;;;;6.77;26.12;95909.63;5092053;28;20481;-56
2022/01/26 08:45:11;;;;;;;2.67;0.97;;;;;;;7.68;25.94;95870.06;5092373;28;20512;-58
2022/01/26 08:47:39;;;;;;;0.83;0.83;;;;;;;7.56;24.63;95870.09;5092484;28;20448;-59
2022/01/26 08:50:09;;;;;;;1.33;1.33;;;;;;;7.73;25.10;95908.91;5091089;28;20515;-59
2022/01/26 08:52:38;;;;;;;0.60;0.60;;;;;;;8.06;25.31;95901.84;5092777;28;20464;-60
2022/01/26 08:55:08;;;;;;;0.50;0.50;;;;;;;8.57;25.08;95900.84;5092209;28;21043;-61
2022/01/26 08:57:36;;;;;;;1.30;1.20;;;;;;;9.72;23.72;95903.34;5092332;28;20464;-60
2022/01/26 09:00:09;;;;;;;0.40;0.40;;;;;;;9.81;23.20;95888.63;5092797;28;20437;-59
2022/01/26 09:02:37;;;;;;;0.50;0.30;;;;;;;9.11;23.11;95864.03;5092924;28;21081;-58
2022/01/26 09:05:08;;;;;;;0.50;0.50;;;;;;;8.91;23.90;95896.28;5092772;28;20420;-58
2022/01/26 09:07:37;;;;;;;0.73;0.73;;;;;;;8.90;23.86;95869.03;5092653;28;20428;-58
2022/01/26 09:10:06;;;;;;;0.70;0.70;;;;;;;8.55;23.89;95851.94;5092673;28;20459;-59
2022/01/26 09:12:38;;;;;;;1.10;1.07;;;;;;;9.21;23.43;95891.38;5092855;28;20489;-60
2022/01/26 09:15:09;;;;;;;1.00;0.50;;;;;;;8.73;23.50;95878.88;5092097;28;20508;-59
2022/01/26 09:17:38;;;;;;;1.13;1.00;;;;;;;8.74;23.10;95877.03;5091250;28;20464;-59
2022/01/26 09:20:08;;;;;;;1.50;1.40;;;;;;;8.30;23.40;95878.75;5092006;28;20429;-58
2022/01/26 09:22:37;;;;;;;1.13;1.03;;;;;;;9.02;22.97;95868.94;5092154;28;20416;-58
2022/01/26 09:25:06;;;;;;;0.97;0.97;;;;;;;10.11;23.05;95857.13;5092042;28;20881;-57
2022/01/26 09:27:36;;;;;;;3.30;3.10;;;;;;;9.00;22.86;95867.59;5092030;28;20511;-57
2022/01/26 09:30:05;;;;;;;1.63;1.53;;;;;;;9.61;23.32;95866.44;5091922;28;20936;-56
2022/01/26 09:32:39;;;;;;;3.17;1.03;;;;;;;9.33;22.83;95854.25;5091488;28;20482;-56
2022/01/26 09:35:10;;;;;;;1.07;1.07;;;;;;;9.31;22.85;95840.47;5092043;28;20496;-56
2022/01/26 09:37:41;;;;;;;0.70;0.70;;;;;;;9.64;22.50;95842.91;5091964;28;20478;-56
2022/01/26 09:40:10;;;;;;;0.73;0.73;;;;;;;9.41;22.86;95843.22;5091819;28;20512;-56
2022/01/26 09:42:38;;;;;;;0.77;0.77;;;;;;;9.53;22.39;95830.63;5092019;28;20872;-55
2022/01/26 09:45:08;;;;;;;0.70;0.70;;;;;;;9.80;22.49;95835.91;5091719;28;20424;-55
2022/01/26 09:47:38;;;;;;;2.03;1.67;;;;;;;10.29;22.82;95826.81;5091821;28;20451;-55
2022/01/26 09:50:28;;;;;;;0.43;0.40;;;;;;;11.75;22.05;95824.81;5090941;28;20531;-55
2022/01/26 09:52:57;;;;;;;2.20;1.17;;;;;;;10.89;22.32;95823.72;5091618;28;20482;-55
2022/01/26 09:55:26;;;;;;;0.40;0.40;;;;;;;9.05;22.57;95622.56;5091861;28;20468;-54
2022/01/26 09:57:58;;;;;;;1.57;1.57;;;;;;;10.49;22.55;95828.78;5091115;28;20425;-54
2022/01/26 10:00:27;;;;;;;3.67;2.07;;;;;;;9.20;24.12;95830.81;5091947;28;20440;-56
2022/01/26 10:03:02;;;;;;;2.43;0.50;;;;;;;9.18;22.43;95661.00;5095541;28;20440;-57
2022/01/26 10:05:44;;;;;;;1.17;1.10;;;;;;;10.59;23.16;95818.25;5095135;28;20427;-58
2022/01/26 10:08:25;;;;;;;1.10;0.77;;;;;;;9.40;23.69;95833.66;5096264;28;20849;-58
2022/01/26 10:17:18;;;;;;;1.53;1.20;;;;;;;10.35;24.06;95822.34;5095865;28;20459;-58
2022/01/26 10:19:43;;;;;;;1.30;1.30;;;;;;;9.87;24.47;95816.13;5095443;28;20500;-58
2022/01/26 10:22:12;;;;;;;4.40;1.50;;;;;;;10.72;23.34;95805.34;5094594;28;20436;-57
2022/01/26 10:24:40;;;;;;;1.30;1.10;;;;;;;10.24;24.27;95795.00;5095984;28;20432;-57
2022/01/26 10:27:10;;;;;;;3.00;2.73;;;;;;;11.07;23.09;95778.16;5095735;28;20428;-56
2022/01/26 10:29:39;;;;;;;1.87;1.77;;;;;;;11.35;23.42;95790.19;5094958;28;20472;-56
2022/01/26 10:32:14;;;;;;;7.07;1.60;;;;;;;11.38;22.87;95793.09;5095612;28;20462;-56
2022/01/26 10:34:44;;;;;;;1.43;1.33;;;;;;;12.23;23.29;95788.94;5095426;28;20423;-56
2022/01/26 10:37:13;;;;;;;2.07;1.97;;;;;;;12.20;22.18;95775.38;5095326;28;20507;-55
2022/01/26 10:39:46;;;;;;;1.80;1.70;;;;;;;11.87;22.78;95776.72;5095217;28;20459;-56
2022/01/26 10:42:19;;;;;;;8.33;1.57;;;;;;;12.41;22.42;95771.63;5095376;28;20478;-55
2022/01/26 10:44:54;;;;;;;4.50;2.00;;;;;;;12.31;22.59;95764.47;5095191;28;20429;-55
2022/01/26 10:47:27;;;;;;;1.60;1.50;;;;;;;12.92;22.67;95758.97;5094671;28;20431;-56
2022/01/26 10:50:08;;;;;;;1.33;1.23;;;;;;;13.59;22.56;95745.84;5095240;28;20416;-55
2022/01/26 10:52:38;;;;;;;2.07;1.97;;;;;;;13.70;21.36;95747.38;5095446;28;20432;-56
2022/01/26 10:55:09;;;;;;;2.53;2.37;;;;;;;13.56;21.56;95738.41;5095230;28;20459;-55
2022/01/26 10:57:38;;;;;;;2.80;2.60;;;;;;;14.03;21.91;95735.09;5094519;28;20983;-55
2022/01/26 11:00:07;;;;;;;0.83;0.83;;;;;;;16.40;19.49;95727.38;5094858;28;20436;-55
2022/01/26 11:02:40;;;;;;;0.80;0.80;;;;;;;16.06;19.33;95696.72;5095160;28;20448;-55
2022/01/26 11:05:11;;;;;;;3.03;2.80;;;;;;;14.08;20.71;95726.25;5094538;28;20439;-55
2022/01/26 11:07:41;;;;;;;2.53;2.37;;;;;;;15.11;20.57;95721.91;5095281;28;20436;-55
2022/01/26 11:10:12;;;;;;;2.13;1.93;;;;;;;14.80;20.53;95715.38;5094521;28;20428;-55
2022/01/26 11:12:42;;;;;;;1.70;1.60;;;;;;;13.80;21.26;95715.31;5094382;28;20953;-55
2022/01/26 11:15:13;;;;;;;0.97;0.90;;;;;;;15.07;20.74;95696.09;5094274;28;21072;-55
2022/01/26 11:17:44;;;;;;;4.83;1.73;;;;;;;14.75;20.41;95704.00;5094201;28;20928;-55
2022/01/26 11:20:21;;;;;;;4.00;1.90;;;;;;;15.73;20.27;95698.63;5094291;28;20493;-55
2022/01/26 11:22:51;;;;;;;3.03;1.33;;;;;;;16.16;20.01;95696.53;5094399;28;20485;-55
2022/01/26 11:25:20;;;;;;;0.77;0.77;;;;;;;16.09;19.52;95690.78;5094090;28;20429;-55
2022/01/26 11:27:50;;;;;;;1.80;1.63;;;;;;;15.77;19.91;95689.72;5094185;28;20420;-55
2022/01/26 11:30:21;;;;;;;3.47;1.07;;;;;;;15.58;20.00;95685.50;5094386;28;20990;-55
2022/01/26 11:32:56;;;;;;;6.40;2.47;;;;;;;15.07;20.49;95675.53;5094347;28;20458;-55
2022/01/26 11:35:29;;;;;;;1.00;1.00;;;;;;;15.30;20.94;95673.06;5094101;28;20824;-55
2022/01/26 11:38:11;;;;;;;3.83;2.67;;;;;;;15.18;21.17;95682.31;5094293;28;20452;-55
2022/01/26 11:46:53;;;;;;;2.20;1.30;;;;;;;17.25;19.16;95657.16;5031189;28;21128;-55
2022/01/26 11:49:25;;;;;;;2.73;2.53;;;;;;;16.91;19.35;95656.81;5031578;28;20960;-55
2022/01/26 11:51:57;;;;;;;1.27;1.17;;;;;;;17.39;19.76;95649.84;5063167;28;20475;-55
2022/01/26 11:54:28;;;;;;;1.73;0.97;;;;;;;16.73;20.36;95639.00;5093986;28;20460;-55
2022/01/26 11:57:07;;;;;;;1.20;1.13;;;;;;;16.75;20.06;95642.16;5093237;28;20506;-55
2022/01/26 11:59:43;;;;;;;0.50;0.50;;;;;;;17.69;18.99;95493.66;5093325;28;20472;-55
2022/01/26 12:02:22;;;;;;;0.83;0.83;;;;;;;18.24;19.49;95627.38;5094142;28;20601;-55
2022/01/26 12:04:59;;;;;;;0.87;0.87;;;;;;;18.24;19.41;95624.69;5093097;28;20937;-55
2022/01/26 12:07:29;;;;;;;1.80;1.00;;;;;;;17.73;20.32;95617.94;5093313;28;20858;-55
2022/01/26 12:09:58;;;;;;;0.90;0.50;;;;;;;18.71;19.42;95615.06;5093559;28;20477;-55
2022/01/26 12:12:26;;;;;;;1.50;0.40;;;;;;;18.45;19.64;95617.66;5093280;28;20428;-55
2022/01/26 12:15:08;;;;;;;1.07;0.60;;;;;;;16.94;20.69;95608.03;5093606;28;20425;-56
2022/01/26 12:17:46;;;;;;;0.90;0.87;;;;;;;16.41;21.70;95613.16;5093239;28;20949;-55
2022/01/26 12:37:11;;;;;;;0.67;0.67;;;;;;;17.07;21.82;95591.94;5089077;28;20515;-54
2022/01/26 12:42:54;;;;;;;12.90;4.80;;;;;;;15.21;23.62;95593.63;5092984;28;20557;-54
2022/01/26 12:45:42;;;;;;;1.87;1.77;;;;;;;15.97;23.09;95588.84;5092361;28;20556;-54
2022/01/26 12:48:12;;;;;;;1.23;0.60;;;;;;;17.04;22.41;95589.84;5093115;28;20439;-55
2022/01/26 12:50:41;;;;;;;1.43;1.07;;;;;;;16.47;22.31;95591.31;5092752;28;20998;-55
2022/01/26 12:53:10;;;;;;;2.40;1.27;;;;;;;15.35;23.66;95590.19;5092416;28;20936;-54
2022/01/26 12:55:40;;;;;;;5.03;1.27;;;;;;;15.65;24.23;95600.41;5092713;28;20425;-54
2022/01/26 12:58:08;;;;;;;0.70;0.70;;;;;;;15.00;24.27;95610.25;5092979;28;20456;-54
2022/01/26 13:00:42;;;;;;;0.93;0.50;;;;;;;15.47;24.59;95587.88;5092384;28;20468;-54
2022/01/26 13:03:13;;;;;;;1.43;0.47;;;;;;;15.70;24.66;95603.00;5092546;28;20419;-54
2022/01/26 13:05:43;;;;;;;0.50;0.40;;;;;;;13.69;26.05;95582.47;5092777;28;20917;-54
2022/01/26 13:08:11;;;;;;;0.67;0.50;;;;;;;12.95;26.99;95582.84;5092361;28;20448;-55
2022/01/26 13:10:42;;;;;;;1.10;1.00;;;;;;;13.69;26.38;95595.78;5092440;28;20500;-55
2022/01/26 13:13:17;;;;;;;0.53;0.53;;;;;;;12.91;27.08;95595.88;5092218;28;20550;-55
2022/01/26 13:16:00;;;;;;;0.43;0.33;;;;;;;12.81;27.24;95603.13;5092527;28;20420;-55
2022/01/26 13:19:04;;;;;;;0.40;0.30;;;;;;;12.59;28.86;95591.03;5092633;28;20467;-55
2022/01/26 13:21:46;;;;;;;0.40;0.30;;;;;;;12.49;28.74;95591.09;5092299;28;20436;-55
2022/01/26 13:24:33;;;;;;;0.43;0.43;;;;;;;12.98;27.92;95598.25;5092266;28;20456;-55
2022/01/26 13:27:12;;;;;;;1.17;0.60;;;;;;;12.67;28.08;95590.44;5091776;28;20454;-55
2022/01/26 13:29:53;;;;;;;1.23;1.23;;;;;;;12.18;29.00;95594.97;5091676;28;20485;-55
2022/01/26 13:35:32;;;;;;;0.50;0.40;;;;;;;12.33;28.44;95594.09;5089195;28;20527;-55
2022/01/26 13:38:15;;;;;;;0.40;0.30;;;;;;;12.40;29.16;95595.38;5092012;28;20546;-55
2022/01/26 13:46:42;;;;;;;0.50;0.47;;;;;;;11.61;30.11;95600.69;5091697;28;20483;-56
2022/01/26 13:52:06;;;;;;;0.40;0.20;;;;;;;10.12;31.75;95606.31;5091613;28;20440;-56
2022/01/26 13:55:00;;;;;;;3.93;0.67;;;;;;;9.24;32.75;95609.75;5090291;28;20517;-57
2022/01/26 14:00:16;;;;;;;0.40;0.27;;;;;;;9.61;33.71;95604.44;5090455;28;20436;-60
2022/01/26 14:02:52;;;;;;;0.70;0.70;;;;;;;9.41;37.47;95576.81;5091998;28;20549;-59
2022/01/26 14:05:30;;;;;;;0.40;0.40;;;;;;;8.27;33.75;95602.00;5091613;28;20436;-60
2022/01/26 14:07:59;;;;;;;0.40;0.30;;;;;;;8.19;34.97;95618.22;5092038;28;20545;-61
2022/01/26 14:10:27;;;;;;;0.90;0.90;;;;;;;7.80;36.93;95619.31;5091777;28;20756;-60
2022/01/26 14:12:58;;;;;;;0.90;0.90;;;;;;;7.53;36.84;95627.13;5091765;28;20428;-60
2022/01/26 14:15:39;;;;;;;0.50;0.40;;;;;;;7.89;44.66;95623.94;5091776;28;20428;-59